Time;durP1;ratioP1;P1;durP2;ratioP2;P2;SDS_P1;SDS_P2;PMS_P1;PMS_P2;Temp;Humidity;BMP_temperature;BMP_pressure;BME280_temperature;BME280_humidity;BME280_pressure;Samples;Min_cycle;Max_cycle;Signal;HPM_P1;HPM_P2
2023/05/13 00:01:37;;;;;;;5.70;2.90;;;;;;;;;;4998942;28;20042;-63
2023/05/13 00:04:07;;;;;;;5.85;2.90;;;;;;;;;;5011273;28;20046;-64
2023/05/13 00:06:34;;;;;;;8.23;2.67;;;;;;;;;;5011695;28;20033;-65
2023/05/13 00:09:01;;;;;;;5.68;2.78;;;;;;;;;;5010979;28;20396;-65
2023/05/13 00:11:28;;;;;;;5.97;3.10;;;;;;;;;;4999058;28;20034;-64
2023/05/13 00:13:56;;;;;;;6.28;2.97;;;;;;;;;;5012016;28;20503;-64
2023/05/13 00:16:26;;;;;;;5.78;2.70;;;;;;;;;;5011890;28;20061;-64
2023/05/13 00:18:53;;;;;;;5.40;2.83;;;;;;;;;;5010035;28;20049;-65
2023/05/13 00:21:19;;;;;;;5.85;2.67;;;;;;;;;;5011687;28;20045;-64
2023/05/13 00:23:46;;;;;;;5.72;3.05;;;;;;;;;;5009658;28;20114;-65
2023/05/13 00:26:13;;;;;;;8.40;2.80;;;;;;;;;;5012850;28;20560;-63
2023/05/13 00:28:39;;;;;;;7.43;3.22;;;;;;;;;;5010448;28;20080;-64
2023/05/13 00:31:06;;;;;;;7.50;2.97;;;;;;;;;;5013018;28;20123;-64
2023/05/13 00:33:33;;;;;;;7.63;2.83;;;;;;;;;;4999218;28;20041;-65
2023/05/13 00:35:59;;;;;;;7.32;2.70;;;;;;;;;;5012030;28;20112;-64
2023/05/13 00:38:26;;;;;;;5.50;2.85;;;;;;;;;;5011753;28;20045;-65
2023/05/13 00:40:53;;;;;;;6.38;2.85;;;;;;;;;;5010768;28;20033;-64
2023/05/13 00:43:19;;;;;;;5.63;2.85;;;;;;;;;;5012430;28;20073;-65
2023/05/13 00:45:46;;;;;;;5.82;2.72;;;;;;;;;;5009134;28;20053;-65
2023/05/13 00:48:13;;;;;;;4.82;2.20;;;;;;;;;;5011689;28;20046;-64
2023/05/13 00:50:43;;;;;;;4.50;2.17;;;;;;;;;;5010577;28;20049;-64
2023/05/13 00:53:10;;;;;;;7.90;2.67;;;;;;;;;;5012081;28;20101;-63
2023/05/13 00:55:40;;;;;;;6.45;2.83;;;;;;;;;;5012043;28;21916;-64
2023/05/13 00:58:07;;;;;;;7.72;2.60;;;;;;;;;;5012923;28;20053;-64
2023/05/13 01:00:37;;;;;;;7.20;3.10;;;;;;;;;;5011744;28;20086;-64
2023/05/13 01:03:11;;;;;;;4.40;2.38;;;;;;;;;;5012816;28;20220;-64
2023/05/13 01:05:44;;;;;;;4.65;2.35;;;;;;;;;;5012022;28;21191;-65
2023/05/13 01:08:24;;;;;;;6.82;2.58;;;;;;;;;;5011169;28;20045;-65
2023/05/13 01:10:53;;;;;;;11.85;2.92;;;;;;;;;;4998717;28;20041;-66
2023/05/13 01:13:26;;;;;;;5.18;2.58;;;;;;;;;;5009081;28;20711;-65
2023/05/13 01:16:01;;;;;;;7.97;2.40;;;;;;;;;;5009488;28;20041;-64
2023/05/13 01:18:31;;;;;;;4.60;2.13;;;;;;;;;;5010285;28;20111;-65
2023/05/13 01:20:58;;;;;;;4.68;2.28;;;;;;;;;;5009108;28;20416;-65
2023/05/13 01:23:25;;;;;;;5.40;2.08;;;;;;;;;;5008478;28;20042;-65
2023/05/13 01:25:51;;;;;;;5.00;2.20;;;;;;;;;;5028145;28;20169;-64
2023/05/13 01:28:18;;;;;;;6.22;2.40;;;;;;;;;;5041251;28;20468;-66
2023/05/13 01:30:45;;;;;;;10.32;2.42;;;;;;;;;;5034675;28;20049;-65
2023/05/13 01:33:11;;;;;;;6.10;2.30;;;;;;;;;;4987773;28;20057;-64
2023/05/13 01:35:38;;;;;;;4.75;1.98;;;;;;;;;;4951200;28;20138;-65
2023/05/13 01:38:05;;;;;;;4.82;1.98;;;;;;;;;;4959233;28;20505;-65
2023/05/13 01:40:32;;;;;;;4.82;1.80;;;;;;;;;;4947348;28;20078;-64
2023/05/13 01:43:00;;;;;;;4.93;2.13;;;;;;;;;;4942658;28;20093;-65
2023/05/13 01:45:46;;;;;;;5.50;2.20;;;;;;;;;;4924043;28;20107;-65
2023/05/13 01:48:14;;;;;;;6.10;2.00;;;;;;;;;;4916112;28;20162;-66
2023/05/13 01:51:04;;;;;;;5.78;2.03;;;;;;;;;;4917996;29;20047;-68
2023/05/13 01:53:32;;;;;;;4.45;2.00;;;;;;;;;;4919203;28;20043;-66
2023/05/13 01:55:59;;;;;;;4.00;1.85;;;;;;;;;;4914652;28;20075;-66
2023/05/13 01:58:25;;;;;;;4.93;2.05;;;;;;;;;;4919579;28;20122;-68
2023/05/13 02:00:53;;;;;;;3.95;1.60;;;;;;;;;;4903481;29;20956;-66
2023/05/13 02:03:19;;;;;;;4.80;1.77;;;;;;;;;;4919100;28;20186;-65
2023/05/13 02:05:47;;;;;;;3.60;1.52;;;;;;;;;;4918705;28;20497;-65
2023/05/13 02:08:14;;;;;;;6.63;1.60;;;;;;;;;;4919779;28;20044;-65
2023/05/13 02:10:41;;;;;;;4.97;1.92;;;;;;;;;;4917852;29;20047;-66
2023/05/13 02:13:07;;;;;;;5.03;1.75;;;;;;;;;;4947246;28;20074;-65
2023/05/13 02:15:34;;;;;;;3.38;1.55;;;;;;;;;;4975532;28;20500;-66
2023/05/13 02:18:01;;;;;;;7.43;2.03;;;;;;;;;;4975598;28;20050;-65
2023/05/13 02:20:27;;;;;;;4.65;2.00;;;;;;;;;;4975185;28;20089;-65
2023/05/13 02:22:54;;;;;;;6.30;1.80;;;;;;;;;;4997566;28;21771;-64
2023/05/13 02:25:20;;;;;;;7.28;1.77;;;;;;;;;;5010272;28;20311;-66
2023/05/13 02:27:47;;;;;;;4.38;1.83;;;;;;;;;;5006217;28;20042;-64
2023/05/13 02:30:14;;;;;;;5.03;1.52;;;;;;;;;;5006002;28;20501;-65
2023/05/13 02:32:42;;;;;;;6.18;1.60;;;;;;;;;;5007760;28;20064;-65
2023/05/13 02:35:09;;;;;;;10.18;1.77;;;;;;;;;;5007242;28;20037;-63
2023/05/13 02:37:36;;;;;;;5.40;2.10;;;;;;;;;;5007932;28;20048;-65
2023/05/13 02:40:03;;;;;;;7.00;2.88;;;;;;;;;;5007495;28;20554;-66
2023/05/13 02:42:29;;;;;;;4.90;1.50;;;;;;;;;;5007933;28;20033;-65
2023/05/13 02:44:56;;;;;;;5.22;1.90;;;;;;;;;;5010623;28;20042;-66
2023/05/13 02:47:22;;;;;;;5.63;2.20;;;;;;;;;;5007494;28;20068;-65
2023/05/13 02:49:49;;;;;;;6.32;2.03;;;;;;;;;;5008114;28;20041;-65
2023/05/13 02:52:16;;;;;;;5.95;2.35;;;;;;;;;;5009791;28;20037;-65
2023/05/13 02:54:42;;;;;;;5.32;1.50;;;;;;;;;;5009585;28;20040;-65
2023/05/13 02:57:09;;;;;;;4.60;1.83;;;;;;;;;;5009992;28;20037;-66
2023/05/13 02:59:37;;;;;;;6.38;1.50;;;;;;;;;;5008856;28;20108;-65
2023/05/13 03:02:03;;;;;;;6.85;1.38;;;;;;;;;;5012342;28;20589;-66
2023/05/13 03:04:30;;;;;;;7.78;1.63;;;;;;;;;;5009465;28;20077;-65
2023/05/13 03:06:56;;;;;;;5.30;1.48;;;;;;;;;;5011768;28;20137;-63
2023/05/13 03:09:23;;;;;;;4.05;1.50;;;;;;;;;;5007304;28;20109;-64
2023/05/13 03:11:50;;;;;;;6.20;1.60;;;;;;;;;;5007427;28;20507;-63
2023/05/13 03:14:16;;;;;;;6.30;1.80;;;;;;;;;;5007854;28;20133;-63
2023/05/13 03:16:43;;;;;;;4.72;1.40;;;;;;;;;;5007277;28;20037;-63
2023/05/13 03:19:10;;;;;;;5.30;1.55;;;;;;;;;;5005779;28;20073;-64
2023/05/13 03:21:37;;;;;;;5.57;1.45;;;;;;;;;;5008946;28;20050;-64
2023/05/13 03:24:04;;;;;;;6.45;1.60;;;;;;;;;;5007216;28;20069;-64
2023/05/13 03:26:31;;;;;;;3.75;1.05;;;;;;;;;;5009717;28;20056;-64
2023/05/13 03:28:57;;;;;;;6.82;1.60;;;;;;;;;;5007985;28;20071;-63
2023/05/13 03:31:24;;;;;;;8.75;2.22;;;;;;;;;;5009271;28;20040;-64
2023/05/13 03:33:52;;;;;;;8.55;2.15;;;;;;;;;;5007225;28;20049;-63
2023/05/13 03:36:19;;;;;;;4.97;1.58;;;;;;;;;;5006116;28;20038;-63
2023/05/13 03:38:45;;;;;;;5.43;2.05;;;;;;;;;;5006681;28;20053;-64
2023/05/13 03:41:16;;;;;;;8.10;2.08;;;;;;;;;;5004943;28;20091;-63
2023/05/13 03:43:43;;;;;;;8.73;2.00;;;;;;;;;;5009483;28;20041;-63
2023/05/13 03:46:10;;;;;;;9.43;2.15;;;;;;;;;;4998346;28;20160;-63
2023/05/13 03:48:37;;;;;;;10.70;1.85;;;;;;;;;;5007503;28;20650;-63
2023/05/13 03:51:03;;;;;;;3.83;1.55;;;;;;;;;;5008480;28;20041;-63
2023/05/13 03:53:30;;;;;;;8.18;1.67;;;;;;;;;;5008433;28;20537;-63
2023/05/13 03:55:57;;;;;;;6.38;1.60;;;;;;;;;;5009818;28;20038;-62
2023/05/13 03:58:23;;;;;;;5.05;1.65;;;;;;;;;;5006045;28;20046;-63
2023/05/13 04:00:50;;;;;;;10.55;2.20;;;;;;;;;;5007550;28;20555;-62
2023/05/13 04:03:17;;;;;;;11.93;2.47;;;;;;;;;;5007417;28;20041;-63
2023/05/13 04:05:48;;;;;;;5.22;1.83;;;;;;;;;;5006192;28;20038;-63
2023/05/13 04:08:15;;;;;;;9.43;2.13;;;;;;;;;;5006765;28;20058;-64
2023/05/13 04:10:42;;;;;;;6.05;1.92;;;;;;;;;;5007275;28;20046;-64
2023/05/13 04:13:08;;;;;;;8.10;1.70;;;;;;;;;;5008888;28;20089;-63
2023/05/13 04:15:35;;;;;;;9.77;2.25;;;;;;;;;;5009358;28;20042;-63
2023/05/13 04:18:01;;;;;;;7.65;1.80;;;;;;;;;;5010251;28;20069;-63
2023/05/13 04:20:28;;;;;;;4.82;1.80;;;;;;;;;;5008028;28;20045;-63
2023/05/13 04:22:55;;;;;;;7.60;2.38;;;;;;;;;;5001704;28;20061;-63
2023/05/13 04:25:22;;;;;;;10.73;2.78;;;;;;;;;;5009576;28;20042;-63
2023/05/13 04:27:49;;;;;;;6.75;2.30;;;;;;;;;;5007952;28;20523;-63
2023/05/13 04:30:15;;;;;;;5.57;1.75;;;;;;;;;;5007221;28;20042;-64
2023/05/13 04:32:42;;;;;;;6.95;1.83;;;;;;;;;;5007006;28;20094;-64
2023/05/13 04:35:09;;;;;;;7.03;1.67;;;;;;;;;;5007862;28;20060;-63
2023/05/13 04:37:36;;;;;;;6.22;1.83;;;;;;;;;;5007574;28;20104;-63
2023/05/13 04:40:03;;;;;;;5.50;2.03;;;;;;;;;;5006916;28;20053;-63
2023/05/13 04:42:29;;;;;;;5.75;2.10;;;;;;;;;;5004891;28;20034;-62
2023/05/13 04:44:56;;;;;;;5.53;1.92;;;;;;;;;;5007441;28;20041;-63
2023/05/13 04:47:23;;;;;;;7.30;1.95;;;;;;;;;;5005726;28;20050;-63
2023/05/13 04:49:49;;;;;;;9.38;2.53;;;;;;;;;;5009227;28;20093;-63
2023/05/13 04:52:16;;;;;;;5.63;2.72;;;;;;;;;;5012554;28;20087;-63
2023/05/13 04:54:42;;;;;;;5.50;2.03;;;;;;;;;;5011701;28;20044;-63
2023/05/13 04:57:09;;;;;;;8.15;2.58;;;;;;;;;;5002021;28;20037;-63
2023/05/13 04:59:36;;;;;;;6.63;2.22;;;;;;;;;;5011545;28;20030;-63
2023/05/13 05:02:02;;;;;;;9.02;2.70;;;;;;;;;;5012591;28;20065;-63
2023/05/13 05:04:29;;;;;;;7.65;2.75;;;;;;;;;;5013583;28;20052;-63
2023/05/13 05:06:56;;;;;;;7.80;2.58;;;;;;;;;;5011457;28;21803;-62
2023/05/13 05:09:22;;;;;;;7.10;1.90;;;;;;;;;;5010378;28;20618;-62
2023/05/13 05:11:49;;;;;;;4.60;2.08;;;;;;;;;;5011625;28;20127;-63
2023/05/13 05:14:16;;;;;;;6.82;1.90;;;;;;;;;;5010197;28;20038;-64
2023/05/13 05:16:43;;;;;;;4.88;1.50;;;;;;;;;;5011080;28;20041;-63
2023/05/13 05:19:09;;;;;;;13.35;2.40;;;;;;;;;;5010377;28;20053;-64
2023/05/13 05:21:37;;;;;;;5.43;1.65;;;;;;;;;;5011635;28;20045;-64
2023/05/13 05:24:03;;;;;;;6.35;2.22;;;;;;;;;;5014797;28;20160;-64
2023/05/13 05:26:30;;;;;;;8.55;2.33;;;;;;;;;;5014522;28;20104;-64
2023/05/13 05:28:57;;;;;;;6.53;2.10;;;;;;;;;;5026550;28;20026;-63
2023/05/13 05:31:25;;;;;;;5.03;2.10;;;;;;;;;;5037483;28;20061;-63
2023/05/13 05:33:52;;;;;;;8.50;2.10;;;;;;;;;;5035417;28;20052;-63
2023/05/13 05:36:19;;;;;;;6.53;2.30;;;;;;;;;;5035517;28;20076;-63
2023/05/13 05:38:46;;;;;;;6.97;2.30;;;;;;;;;;5017593;28;20678;-64
2023/05/13 05:41:13;;;;;;;7.15;2.42;;;;;;;;;;5015694;28;20034;-64
2023/05/13 05:43:39;;;;;;;8.10;2.83;;;;;;;;;;5011615;28;20045;-63
2023/05/13 05:46:06;;;;;;;7.50;2.60;;;;;;;;;;5011897;28;20070;-63
2023/05/13 05:48:33;;;;;;;10.00;2.58;;;;;;;;;;5010347;28;20045;-64
2023/05/13 05:50:59;;;;;;;8.43;2.50;;;;;;;;;;5014977;28;20136;-64
2023/05/13 05:53:26;;;;;;;7.95;2.45;;;;;;;;;;5010255;28;20053;-63
2023/05/13 05:55:52;;;;;;;10.40;2.67;;;;;;;;;;5009414;28;21725;-64
2023/05/13 05:58:19;;;;;;;6.47;2.70;;;;;;;;;;5008100;28;20807;-64
2023/05/13 06:00:46;;;;;;;8.13;2.88;;;;;;;;;;5007087;28;20069;-64
2023/05/13 06:03:12;;;;;;;6.28;2.78;;;;;;;;;;5009273;28;20168;-63
2023/05/13 06:05:39;;;;;;;10.60;3.15;;;;;;;;;;5008113;28;20037;-63
2023/05/13 06:08:06;;;;;;;9.88;2.92;;;;;;;;;;5010234;28;20045;-63
2023/05/13 06:10:32;;;;;;;11.23;2.60;;;;;;;;;;5007900;28;20045;-65
2023/05/13 06:12:59;;;;;;;9.48;3.25;;;;;;;;;;5004227;28;20088;-65
2023/05/13 06:15:26;;;;;;;11.55;2.90;;;;;;;;;;5009365;28;20042;-63
2023/05/13 06:17:52;;;;;;;8.77;2.78;;;;;;;;;;5009293;28;20029;-62
2023/05/13 06:20:19;;;;;;;8.15;3.10;;;;;;;;;;5009851;28;20129;-62
2023/05/13 06:22:46;;;;;;;10.35;3.47;;;;;;;;;;5010846;28;20064;-61
2023/05/13 06:25:13;;;;;;;13.30;3.45;;;;;;;;;;5008167;28;20053;-63
2023/05/13 06:27:40;;;;;;;10.85;2.92;;;;;;;;;;5006275;28;20073;-64
2023/05/13 06:30:07;;;;;;;9.90;3.08;;;;;;;;;;5011287;28;20037;-63
2023/05/13 06:32:34;;;;;;;15.25;3.50;;;;;;;;;;5010307;28;20046;-62
2023/05/13 06:35:00;;;;;;;7.47;3.20;;;;;;;;;;5009994;28;20037;-65
2023/05/13 06:37:47;;;;;;;8.93;3.28;;;;;;;;;;4974586;28;20074;-64
2023/05/13 06:40:33;;;;;;;8.00;2.63;;;;;;;;;;4918873;29;20051;-64
2023/05/13 06:43:00;;;;;;;7.45;2.95;;;;;;;;;;4917396;29;20459;-64
2023/05/13 06:45:28;;;;;;;13.00;3.55;;;;;;;;;;4917607;29;20197;-63
2023/05/13 06:47:55;;;;;;;9.95;3.60;;;;;;;;;;4918497;29;20700;-63
2023/05/13 06:50:21;;;;;;;7.75;3.28;;;;;;;;;;4914656;29;20040;-65
2023/05/13 06:52:48;;;;;;;8.15;3.28;;;;;;;;;;4918418;29;20123;-65
2023/05/13 06:55:17;;;;;;;8.43;2.95;;;;;;;;;;4915959;29;20055;-64
2023/05/13 06:57:45;;;;;;;17.02;3.58;;;;;;;;;;4917251;29;20052;-63
2023/05/13 07:00:12;;;;;;;10.02;3.20;;;;;;;;;;4917703;29;20043;-63
2023/05/13 07:02:39;;;;;;;12.52;3.08;;;;;;;;;;4916402;29;20116;-64
2023/05/13 07:05:06;;;;;;;13.10;2.92;;;;;;;;;;4909963;29;20154;-64
2023/05/13 07:07:32;;;;;;;11.60;2.72;;;;;;;;;;4920274;29;20252;-64
2023/05/13 07:09:59;;;;;;;7.63;3.15;;;;;;;;;;4941992;28;20045;-64
2023/05/13 07:12:25;;;;;;;8.35;3.05;;;;;;;;;;4959043;28;20038;-64
2023/05/13 07:14:52;;;;;;;8.18;2.50;;;;;;;;;;4959809;28;20039;-63
2023/05/13 07:17:19;;;;;;;8.30;2.85;;;;;;;;;;4969593;28;20442;-64
2023/05/13 07:19:46;;;;;;;7.13;3.05;;;;;;;;;;5007777;28;20536;-62
2023/05/13 07:22:12;;;;;;;7.68;2.47;;;;;;;;;;5010102;28;20046;-61
2023/05/13 07:24:40;;;;;;;7.75;2.92;;;;;;;;;;5010427;28;20038;-62
2023/05/13 07:27:07;;;;;;;9.02;2.92;;;;;;;;;;5009162;28;20030;-63
2023/05/13 07:29:33;;;;;;;12.48;3.03;;;;;;;;;;5008337;28;20034;-65
2023/05/13 07:32:06;;;;;;;6.68;3.00;;;;;;;;;;5008750;28;20034;-64
2023/05/13 07:34:33;;;;;;;6.80;3.10;;;;;;;;;;5001362;28;20040;-63
2023/05/13 07:37:00;;;;;;;10.20;3.20;;;;;;;;;;5009103;28;20054;-65
2023/05/13 07:39:26;;;;;;;9.52;3.13;;;;;;;;;;5001535;28;20041;-64
2023/05/13 07:41:53;;;;;;;8.32;3.13;;;;;;;;;;5003891;28;20582;-63
2023/05/13 07:44:20;;;;;;;9.30;3.50;;;;;;;;;;5008096;28;20041;-65
2023/05/13 07:46:48;;;;;;;6.63;3.30;;;;;;;;;;5008979;28;20060;-63
2023/05/13 07:49:14;;;;;;;10.68;3.80;;;;;;;;;;4990097;28;20046;-62
2023/05/13 07:51:41;;;;;;;9.90;3.05;;;;;;;;;;4999855;28;20046;-64
2023/05/13 07:54:09;;;;;;;11.73;3.33;;;;;;;;;;4988174;28;20038;-63
2023/05/13 07:56:36;;;;;;;9.68;3.05;;;;;;;;;;5007686;28;20058;-62
2023/05/13 07:59:03;;;;;;;6.45;2.97;;;;;;;;;;4991289;28;20512;-63
2023/05/13 08:01:50;;;;;;;11.88;3.35;;;;;;;;;;4941190;28;20047;-63
2023/05/13 08:04:17;;;;;;;9.82;4.13;;;;;;;;;;4939970;28;20038;-62
2023/05/13 08:06:45;;;;;;;10.43;3.45;;;;;;;;;;4952981;28;20078;-62
2023/05/13 08:09:13;;;;;;;6.13;3.05;;;;;;;;;;4955454;28;22357;-65
2023/05/13 08:11:39;;;;;;;9.18;3.53;;;;;;;;;;4956214;28;20071;-64
2023/05/13 08:14:06;;;;;;;10.80;3.30;;;;;;;;;;4955304;28;20043;-63
2023/05/13 08:16:36;;;;;;;10.25;3.50;;;;;;;;;;4924284;28;20035;-64
2023/05/13 08:19:03;;;;;;;12.32;3.50;;;;;;;;;;4949825;28;20181;-63
2023/05/13 08:21:30;;;;;;;13.93;4.03;;;;;;;;;;4945346;28;20039;-63
2023/05/13 08:23:57;;;;;;;8.13;3.38;;;;;;;;;;4958946;28;20324;-62
2023/05/13 08:26:24;;;;;;;6.72;3.28;;;;;;;;;;4959064;28;20039;-63
2023/05/13 08:28:50;;;;;;;11.02;3.55;;;;;;;;;;4959084;28;20043;-63
2023/05/13 08:31:17;;;;;;;7.72;3.22;;;;;;;;;;4959461;28;20101;-64
2023/05/13 08:33:46;;;;;;;9.60;3.97;;;;;;;;;;5002034;28;20121;-64
2023/05/13 08:36:13;;;;;;;8.85;3.58;;;;;;;;;;5010413;28;20045;-64
2023/05/13 08:38:41;;;;;;;7.57;3.60;;;;;;;;;;5007059;28;20757;-63
2023/05/13 08:41:09;;;;;;;7.30;3.17;;;;;;;;;;5010443;28;20052;-64
2023/05/13 08:43:38;;;;;;;7.15;3.10;;;;;;;;;;5008253;28;20073;-63
2023/05/13 08:46:06;;;;;;;9.70;3.50;;;;;;;;;;5010890;28;20143;-63
2023/05/13 08:48:33;;;;;;;8.05;3.40;;;;;;;;;;5009183;28;20045;-62
2023/05/13 08:51:03;;;;;;;5.97;3.30;;;;;;;;;;5012858;28;20566;-64
2023/05/13 08:53:30;;;;;;;7.45;3.20;;;;;;;;;;5011219;28;20504;-63
2023/05/13 08:55:57;;;;;;;7.53;3.00;;;;;;;;;;5003643;28;20283;-61
2023/05/13 08:58:25;;;;;;;7.45;3.10;;;;;;;;;;5007883;28;20053;-64
2023/05/13 09:00:55;;;;;;;6.72;3.63;;;;;;;;;;5009136;28;20056;-64
2023/05/13 09:03:22;;;;;;;7.25;3.42;;;;;;;;;;5006613;28;20034;-63
2023/05/13 09:05:48;;;;;;;8.48;3.47;;;;;;;;;;5008829;28;20048;-64
2023/05/13 09:08:15;;;;;;;7.97;3.60;;;;;;;;;;5009821;28;20060;-63
2023/05/13 09:10:42;;;;;;;9.55;3.53;;;;;;;;;;5009498;28;20153;-64
2023/05/13 09:13:08;;;;;;;9.27;3.47;;;;;;;;;;4992808;28;20034;-64
2023/05/13 09:15:35;;;;;;;9.55;3.47;;;;;;;;;;5008178;28;20038;-63
2023/05/13 09:18:03;;;;;;;12.15;3.45;;;;;;;;;;5010269;28;20128;-65
2023/05/13 09:20:30;;;;;;;11.05;3.65;;;;;;;;;;5009816;28;20587;-62
2023/05/13 09:23:01;;;;;;;11.05;3.58;;;;;;;;;;5009588;28;20140;-63
2023/05/13 09:25:28;;;;;;;7.70;3.28;;;;;;;;;;4992770;28;20484;-62
2023/05/13 09:27:57;;;;;;;8.73;4.05;;;;;;;;;;5007727;28;20160;-64
2023/05/13 09:30:27;;;;;;;8.38;3.22;;;;;;;;;;5005958;28;20050;-63
2023/05/13 09:33:05;;;;;;;7.97;3.72;;;;;;;;;;5009860;28;20038;-63
2023/05/13 09:35:32;;;;;;;6.78;3.22;;;;;;;;;;5006914;28;20052;-64
2023/05/13 09:37:59;;;;;;;9.02;3.80;;;;;;;;;;5014226;28;20054;-64
2023/05/13 09:40:25;;;;;;;6.88;3.30;;;;;;;;;;5027184;28;20121;-63
2023/05/13 09:42:59;;;;;;;8.07;3.50;;;;;;;;;;5006164;28;20057;-63
2023/05/13 09:45:26;;;;;;;6.18;2.72;;;;;;;;;;5018912;28;20038;-62
2023/05/13 09:47:52;;;;;;;9.43;3.65;;;;;;;;;;5016375;28;20505;-65
2023/05/13 09:50:19;;;;;;;11.32;3.42;;;;;;;;;;5013630;28;20112;-63
2023/05/13 09:52:46;;;;;;;7.65;3.53;;;;;;;;;;5009440;28;20037;-63
2023/05/13 09:55:12;;;;;;;12.70;3.80;;;;;;;;;;5010208;28;20061;-65
2023/05/13 09:57:39;;;;;;;8.90;3.85;;;;;;;;;;5010788;28;20859;-64
2023/05/13 10:00:06;;;;;;;10.98;3.90;;;;;;;;;;5005109;28;20064;-62
2023/05/13 10:02:34;;;;;;;9.73;3.72;;;;;;;;;;5008927;28;20172;-64
2023/05/13 10:05:01;;;;;;;8.25;3.65;;;;;;;;;;5012014;28;20041;-63
2023/05/13 10:07:28;;;;;;;11.60;3.53;;;;;;;;;;5010570;28;20038;-62
2023/05/13 10:10:00;;;;;;;8.35;3.33;;;;;;;;;;5009781;28;20613;-63
2023/05/13 10:12:28;;;;;;;8.40;3.87;;;;;;;;;;5007769;28;20041;-64
2023/05/13 10:14:55;;;;;;;8.38;3.88;;;;;;;;;;5008060;28;20267;-62
2023/05/13 10:17:23;;;;;;;12.43;3.50;;;;;;;;;;5009851;28;20503;-63
2023/05/13 10:19:51;;;;;;;9.90;4.00;;;;;;;;;;5009262;28;20034;-62
2023/05/13 10:22:28;;;;;;;10.43;3.90;;;;;;;;;;5008499;28;20115;-63
2023/05/13 10:24:58;;;;;;;7.95;3.35;;;;;;;;;;5008361;28;20033;-63
2023/05/13 10:27:29;;;;;;;9.40;3.97;;;;;;;;;;5006889;28;20029;-63
2023/05/13 10:29:56;;;;;;;6.95;4.03;;;;;;;;;;5007930;28;21122;-62
2023/05/13 10:32:24;;;;;;;8.63;3.67;;;;;;;;;;4997493;28;21824;-64
2023/05/13 10:34:54;;;;;;;10.63;3.88;;;;;;;;;;5006284;28;20037;-65
2023/05/13 10:37:33;;;;;;;9.20;4.25;;;;;;;;;;5008924;28;20598;-64
2023/05/13 10:40:00;;;;;;;9.85;4.57;;;;;;;;;;5006837;28;20050;-64
2023/05/13 10:42:26;;;;;;;9.90;4.40;;;;;;;;;;5007473;28;20045;-63
2023/05/13 10:44:57;;;;;;;9.05;3.88;;;;;;;;;;5008095;28;20641;-62
2023/05/13 10:47:24;;;;;;;8.02;4.15;;;;;;;;;;5007504;28;20048;-63
2023/05/13 10:49:51;;;;;;;9.20;3.70;;;;;;;;;;4997629;28;20050;-64
2023/05/13 10:52:18;;;;;;;8.07;3.67;;;;;;;;;;5011176;28;20052;-64
2023/05/13 10:54:57;;;;;;;11.95;4.63;;;;;;;;;;4999945;28;20080;-62
2023/05/13 10:57:36;;;;;;;13.30;4.70;;;;;;;;;;5007928;28;20033;-62
2023/05/13 11:00:14;;;;;;;11.23;4.60;;;;;;;;;;5009248;28;20140;-66
2023/05/13 11:02:41;;;;;;;8.93;4.07;;;;;;;;;;5007336;28;20136;-66
2023/05/13 11:05:08;;;;;;;10.07;4.35;;;;;;;;;;4995997;28;20113;-64
2023/05/13 11:07:38;;;;;;;10.40;4.80;;;;;;;;;;5008062;28;20110;-64
2023/05/13 11:10:23;;;;;;;10.55;4.72;;;;;;;;;;5004977;28;20041;-64
2023/05/13 11:13:08;;;;;;;10.32;4.43;;;;;;;;;;5005973;28;20582;-62
2023/05/13 11:15:44;;;;;;;10.43;4.90;;;;;;;;;;5004466;28;20191;-63
2023/05/13 11:18:14;;;;;;;16.58;7.82;;;;;;;;;;5006156;28;20169;-64
2023/05/13 11:20:45;;;;;;;13.07;4.88;;;;;;;;;;5006970;28;20038;-65
2023/05/13 11:23:16;;;;;;;12.15;5.93;;;;;;;;;;5006370;28;20204;-64
2023/05/13 11:25:44;;;;;;;10.65;4.60;;;;;;;;;;5005555;28;20053;-64
2023/05/13 11:28:15;;;;;;;11.32;4.53;;;;;;;;;;5009425;28;20069;-64
2023/05/13 11:31:15;;;;;;;11.75;4.38;;;;;;;;;;4971632;28;20125;-63
2023/05/13 11:34:00;;;;;;;14.18;4.85;;;;;;;;;;4970724;28;20146;-65
2023/05/13 11:36:30;;;;;;;11.10;4.60;;;;;;;;;;4964235;28;20042;-65
2023/05/13 11:39:04;;;;;;;11.98;5.05;;;;;;;;;;4972352;28;20469;-63
2023/05/13 11:41:35;;;;;;;13.20;4.80;;;;;;;;;;4970260;28;20180;-63
2023/05/13 11:44:02;;;;;;;14.75;5.32;;;;;;;;;;4955905;28;20034;-64
2023/05/13 11:46:29;;;;;;;13.20;5.25;;;;;;;;;;4970845;28;20055;-63
2023/05/13 11:48:55;;;;;;;11.55;5.47;;;;;;;;;;4968060;28;20525;-64
2023/05/13 11:51:24;;;;;;;20.65;9.68;;;;;;;;;;4969187;28;20069;-65
2023/05/13 11:53:54;;;;;;;19.88;6.22;;;;;;;;;;4973691;28;20342;-63
2023/05/13 11:56:26;;;;;;;19.80;7.18;;;;;;;;;;4971386;28;20042;-63
2023/05/13 11:58:52;;;;;;;22.00;6.88;;;;;;;;;;4975307;28;20539;-63
2023/05/13 12:01:20;;;;;;;16.48;6.50;;;;;;;;;;4972608;28;20114;-63
2023/05/13 12:03:46;;;;;;;25.27;6.68;;;;;;;;;;4991791;28;20412;-63
2023/05/13 12:06:13;;;;;;;11.85;5.35;;;;;;;;;;4991012;28;20486;-63
2023/05/13 12:08:44;;;;;;;16.00;6.07;;;;;;;;;;4992052;28;20113;-65
2023/05/13 12:11:13;;;;;;;22.23;6.20;;;;;;;;;;4990861;28;20053;-62
2023/05/13 12:13:41;;;;;;;18.95;6.03;;;;;;;;;;4993717;28;20038;-63
2023/05/13 12:16:09;;;;;;;12.35;5.72;;;;;;;;;;4989492;28;20566;-63
2023/05/13 12:18:36;;;;;;;15.10;5.65;;;;;;;;;;4984464;28;20038;-63
2023/05/13 12:21:13;;;;;;;12.13;5.07;;;;;;;;;;4996792;28;20076;-64
2023/05/13 12:23:40;;;;;;;14.88;5.32;;;;;;;;;;4990876;28;20439;-62
2023/05/13 12:26:26;;;;;;;18.80;5.68;;;;;;;;;;4977663;28;20129;-64
2023/05/13 12:28:57;;;;;;;20.92;6.05;;;;;;;;;;4978798;28;20101;-62
2023/05/13 12:31:24;;;;;;;20.90;5.80;;;;;;;;;;4977231;28;20039;-64
2023/05/13 12:33:51;;;;;;;17.02;5.25;;;;;;;;;;4978721;28;20104;-65
2023/05/13 12:36:19;;;;;;;10.85;5.38;;;;;;;;;;4960682;28;20891;-62
2023/05/13 12:38:59;;;;;;;10.55;4.97;;;;;;;;;;4974920;28;20050;-64
2023/05/13 12:41:27;;;;;;;9.07;4.70;;;;;;;;;;4978297;28;20046;-64
2023/05/13 12:43:58;;;;;;;20.63;5.10;;;;;;;;;;4978051;28;20038;-63
2023/05/13 12:46:24;;;;;;;11.13;4.78;;;;;;;;;;4976727;28;20465;-63
2023/05/13 12:48:58;;;;;;;14.02;4.93;;;;;;;;;;4957554;28;20113;-62
2023/05/13 12:51:25;;;;;;;11.90;4.95;;;;;;;;;;4956387;28;20035;-64
2023/05/13 12:53:53;;;;;;;13.40;5.00;;;;;;;;;;4958253;28;20117;-64
2023/05/13 12:56:22;;;;;;;9.52;4.63;;;;;;;;;;4958637;28;20042;-64
2023/05/13 12:58:50;;;;;;;15.77;5.10;;;;;;;;;;4939030;28;20200;-66
2023/05/13 13:01:17;;;;;;;11.02;4.95;;;;;;;;;;4959558;28;20043;-65
2023/05/13 13:03:44;;;;;;;9.45;4.88;;;;;;;;;;4966173;28;20042;-65
2023/05/13 13:06:31;;;;;;;13.13;5.05;;;;;;;;;;4950880;28;20054;-64
2023/05/13 13:08:58;;;;;;;13.65;5.07;;;;;;;;;;4956857;28;20043;-64
2023/05/13 13:11:24;;;;;;;10.90;4.63;;;;;;;;;;4958685;28;21108;-65
2023/05/13 13:13:51;;;;;;;10.60;4.47;;;;;;;;;;4961133;28;20049;-65
2023/05/13 13:16:17;;;;;;;8.88;4.85;;;;;;;;;;4960142;28;20077;-63
2023/05/13 13:18:44;;;;;;;11.80;4.65;;;;;;;;;;4952862;28;20061;-65
2023/05/13 13:21:11;;;;;;;10.70;6.03;;;;;;;;;;4942762;28;20110;-65
2023/05/13 13:23:38;;;;;;;16.85;5.03;;;;;;;;;;4958127;28;20089;-65
2023/05/13 13:26:05;;;;;;;11.43;4.35;;;;;;;;;;4949615;28;20042;-64
2023/05/13 13:28:31;;;;;;;10.38;4.95;;;;;;;;;;4954331;28;20042;-64
2023/05/13 13:30:58;;;;;;;10.82;4.75;;;;;;;;;;4977186;28;20038;-63
2023/05/13 13:33:25;;;;;;;12.60;5.25;;;;;;;;;;4953899;28;20065;-63
2023/05/13 13:35:52;;;;;;;14.27;5.45;;;;;;;;;;4976006;28;20289;-64
2023/05/13 13:38:18;;;;;;;15.80;4.57;;;;;;;;;;4977818;28;20065;-65
2023/05/13 13:40:45;;;;;;;11.80;5.20;;;;;;;;;;4975458;28;20062;-64
2023/05/13 13:43:11;;;;;;;10.27;4.68;;;;;;;;;;4978889;28;20039;-64
2023/05/13 13:45:39;;;;;;;10.75;4.57;;;;;;;;;;4993911;28;20516;-64
2023/05/13 13:48:06;;;;;;;12.88;4.82;;;;;;;;;;4995109;28;20511;-64
2023/05/13 13:50:32;;;;;;;9.77;4.63;;;;;;;;;;5010641;28;21204;-63
2023/05/13 13:52:59;;;;;;;9.73;4.32;;;;;;;;;;4995960;28;20034;-65
2023/05/13 13:55:26;;;;;;;11.43;4.95;;;;;;;;;;5002164;28;20110;-65
2023/05/13 13:57:53;;;;;;;12.23;4.50;;;;;;;;;;5009385;28;20037;-65
2023/05/13 14:00:19;;;;;;;10.57;4.82;;;;;;;;;;5008533;28;20079;-62
2023/05/13 14:02:47;;;;;;;11.02;5.00;;;;;;;;;;5005604;28;20064;-68
2023/05/13 14:05:14;;;;;;;9.52;4.40;;;;;;;;;;4993162;28;20057;-65
2023/05/13 14:07:41;;;;;;;20.25;5.55;;;;;;;;;;5007325;28;20076;-65
2023/05/13 14:10:08;;;;;;;11.88;5.05;;;;;;;;;;5013502;28;20042;-65
2023/05/13 14:12:35;;;;;;;13.30;4.65;;;;;;;;;;5009639;28;20065;-67
2023/05/13 14:15:01;;;;;;;10.90;5.32;;;;;;;;;;4998840;28;20045;-64
2023/05/13 14:17:28;;;;;;;10.95;4.80;;;;;;;;;;4982347;28;20029;-65
2023/05/13 14:19:55;;;;;;;14.32;4.78;;;;;;;;;;5009180;28;20523;-66
2023/05/13 14:22:22;;;;;;;19.80;4.57;;;;;;;;;;4991648;28;20234;-65
2023/05/13 14:24:50;;;;;;;14.68;5.35;;;;;;;;;;5011875;28;20072;-65
2023/05/13 14:27:17;;;;;;;17.25;4.60;;;;;;;;;;5008503;28;21217;-65
2023/05/13 14:29:45;;;;;;;10.90;4.10;;;;;;;;;;4990015;28;20041;-65
2023/05/13 14:32:12;;;;;;;13.13;4.22;;;;;;;;;;5005099;28;20037;-64
2023/05/13 14:34:39;;;;;;;8.45;3.58;;;;;;;;;;5009583;28;20049;-64
2023/05/13 14:37:05;;;;;;;16.02;4.50;;;;;;;;;;4996372;28;20049;-65
2023/05/13 14:39:32;;;;;;;9.00;4.13;;;;;;;;;;5009365;28;20696;-64
2023/05/13 14:41:59;;;;;;;7.35;3.55;;;;;;;;;;4997922;28;20116;-65
2023/05/13 14:44:25;;;;;;;9.25;3.70;;;;;;;;;;4996383;28;20052;-66